Página principal
METAR-TAF:

METAR-TAF

Aeroportos :

Chita, Rússia

latitude: 52-05N, longitude: 113-29E, altura: 685 m

Observação actual do tempo

O boletim foi feito há 15 minutos, às 12:30 UTC
Vento 6 kt de sudoeste
Temperatura -7°C
Humidade 62%
Pressão 1006 hPa
Visibilidade 10 km ou mais

METAR: UIAA 181230Z 22003MPS 9999 NSC M07/M13 Q1006 R29/410150 NOSIG RMK QFE696/0928

Hora: 21:45 (12:45 UTC)

Previsão

O boletim foi feito há 1 hora e 45 minutos, às 11:00 UTC
Previsão válida de 18 às 12 UTC a 19 às 12 UTC
Vento 6 kt de sudoeste
Visibilidade 10 km ou mais
Nuvens fragmentadasa uma altura de 4000 ft, Cumulonimbus.
Temporariamente
de 18 às 12 UTC a 18 às 24 UTC
Vento 12 kt de oeste com rajadas de 23 kt

TAF: UIAA 181100Z 1812/1912 22003MPS 9999 BKN040CB TEMPO 1812/1824 28006G12MPS

Observações e previsões do tempo de mais de 4000 aeroportos (mensagens METAR e TAF).

As estações disponíveis são os pontos amarelos e vermelhos sobre o mapa.

Mova o rato sobre o mapa para ver o nome da estação.

Depois clique no ponto para visualizar as observações e previsões meteorológicas.

Para alterar o mapa : clique nos botões verdes com uma cruz preta para aumentar o zoom; no botão verde com uma pitada de zoom; ou nas setas verdes para mapas adjacentes.


METAR-TAF: